createdAt,value
2023-04-30T00:00:41.725Z,219.23
2023-04-30T00:01:41.884Z,218.75
2023-04-30T00:02:41.975Z,221.91
2023-04-30T00:03:42.045Z,223.63
2023-04-30T00:04:41.953Z,217.88
2023-04-30T00:05:41.994Z,216.27
2023-04-30T00:06:42.076Z,215.42
2023-04-30T00:07:42.100Z,211.10
2023-04-30T00:08:42.110Z,211.91
2023-04-30T00:09:42.170Z,210.30
2023-04-30T00:10:42.192Z,208.87
2023-04-30T00:11:42.297Z,210.44
2023-04-30T00:12:42.325Z,214.96
2023-04-30T00:13:42.386Z,215.88
2023-04-30T00:14:42.367Z,217.86
2023-04-30T00:15:42.436Z,219.24
2023-04-30T00:16:42.589Z,220.22
2023-04-30T00:17:42.614Z,219.15
2023-04-30T00:18:42.575Z,218.88
2023-04-30T00:19:42.645Z,218.08
2023-04-30T00:20:42.693Z,215.81
2023-04-30T00:21:42.737Z,222.79
2023-04-30T00:22:42.782Z,219.42
2023-04-30T00:23:42.811Z,217.03
2023-04-30T00:24:42.867Z,217.97
2023-04-30T00:25:42.972Z,219.18
2023-04-30T00:26:42.998Z,220.83
2023-04-30T00:27:43.056Z,215.66
2023-04-30T00:28:43.081Z,210.16
2023-04-30T00:29:43.114Z,213.58
2023-04-30T00:30:43.176Z,216.72
2023-04-30T00:31:43.273Z,214.59
2023-04-30T00:32:43.315Z,214.25
2023-04-30T00:33:43.343Z,216.69
2023-04-30T00:34:43.379Z,218.84
2023-04-30T00:35:43.412Z,219.22
2023-04-30T00:36:43.621Z,220.62
2023-04-30T00:37:43.542Z,218.54
2023-04-30T00:38:43.602Z,218.11
2023-04-30T00:39:43.617Z,220.65
2023-04-30T00:40:43.700Z,218.60
2023-04-30T00:41:43.763Z,217.94
2023-04-30T00:42:43.796Z,216.47
2023-04-30T00:43:43.873Z,213.19
2023-04-30T00:44:43.907Z,210.63
2023-04-30T00:45:43.990Z,209.27
2023-04-30T00:46:43.994Z,210.48
2023-04-30T00:47:44.095Z,212.77
2023-04-30T00:48:44.099Z,213.72
2023-04-30T00:49:44.129Z,218.15
2023-04-30T00:50:44.206Z,221.02
2023-04-30T00:51:44.237Z,220.80
2023-04-30T00:52:44.289Z,224.08
2023-04-30T00:53:44.331Z,221.17
2023-04-30T00:54:44.380Z,219.76
2023-04-30T00:55:44.416Z,221.02
2023-04-30T00:56:44.478Z,221.98
2023-04-30T00:57:44.509Z,220.20
2023-04-30T00:58:44.554Z,220.24
2023-04-30T00:59:44.581Z,221.12
2023-04-30T01:00:44.632Z,225.39
2023-04-30T01:01:44.755Z,226.64
2023-04-30T01:02:44.832Z,222.03
2023-04-30T01:03:44.909Z,223.54
2023-04-30T01:04:44.853Z,223.90
2023-04-30T01:05:44.902Z,216.52
2023-04-30T01:06:45.013Z,213.07
2023-04-30T01:07:45.265Z,212.94
2023-04-30T01:08:45.068Z,217.25
2023-04-30T01:09:45.103Z,223.98
2023-04-30T01:10:45.150Z,224.15
2023-04-30T01:11:45.225Z,227.26
2023-04-30T01:12:45.244Z,224.53
2023-04-30T01:13:45.304Z,226.87
2023-04-30T01:14:45.372Z,227.98
2023-04-30T01:15:45.466Z,225.50
2023-04-30T01:16:45.495Z,227.19
2023-04-30T01:17:45.562Z,225.67
2023-04-30T01:18:45.658Z,226.74
2023-04-30T01:19:45.623Z,223.80
2023-04-30T01:20:45.680Z,227.40
2023-04-30T01:21:45.722Z,225.35
2023-04-30T01:22:45.763Z,224.48
2023-04-30T01:23:45.849Z,224.09
2023-04-30T01:24:45.880Z,222.45
2023-04-30T01:25:45.938Z,222.41
2023-04-30T01:26:45.977Z,220.18
2023-04-30T01:27:46.034Z,218.65
2023-04-30T01:28:46.110Z,222.76
2023-04-30T01:29:46.146Z,220.82
2023-04-30T01:30:46.182Z,223.63
2023-04-30T01:31:46.399Z,218.80
2023-04-30T01:32:46.365Z,215.93
2023-04-30T01:33:46.326Z,212.54
2023-04-30T01:34:46.367Z,210.05
2023-04-30T01:35:46.458Z,210.55
2023-04-30T01:36:46.478Z,208.69
2023-04-30T01:37:46.566Z,207.98
2023-04-30T01:38:46.609Z,211.11
2023-04-30T01:39:46.635Z,214.34
2023-04-30T01:40:46.696Z,216.32
2023-04-30T01:41:46.741Z,217.35
2023-04-30T01:42:46.779Z,217.22
2023-04-30T01:43:46.804Z,217.21
2023-04-30T01:44:46.868Z,214.86
2023-04-30T01:45:46.922Z,216.84
2023-04-30T01:46:47.048Z,220.90
2023-04-30T01:47:47.027Z,219.26
2023-04-30T01:48:47.049Z,219.39
2023-04-30T01:49:47.112Z,215.49
2023-04-30T01:50:47.140Z,216.08
2023-04-30T01:51:47.285Z,218.30
2023-04-30T01:52:47.243Z,219.21
2023-04-30T01:53:47.297Z,217.70
2023-04-30T01:54:47.284Z,223.09
2023-04-30T01:55:47.351Z,225.87
2023-04-30T01:56:47.416Z,219.06
2023-04-30T01:57:47.456Z,217.92
2023-04-30T01:58:47.521Z,217.93
2023-04-30T01:59:47.582Z,220.70
2023-04-30T02:00:47.587Z,218.99
2023-04-30T02:01:47.708Z,220.13
2023-04-30T02:02:47.723Z,219.98
2023-04-30T02:03:47.905Z,219.28
2023-04-30T02:04:47.771Z,214.60
2023-04-30T02:05:47.842Z,215.60
2023-04-30T02:06:47.886Z,215.96
2023-04-30T02:07:47.926Z,219.15
2023-04-30T02:08:47.988Z,222.24
2023-04-30T02:09:48.026Z,218.55
2023-04-30T02:10:48.079Z,219.28
2023-04-30T02:11:48.102Z,220.31
2023-04-30T02:12:48.191Z,223.07
2023-04-30T02:13:48.235Z,223.55
2023-04-30T02:14:48.289Z,223.99
2023-04-30T02:15:48.376Z,224.76
2023-04-30T02:16:48.361Z,223.59
2023-04-30T02:17:48.520Z,220.94
2023-04-30T02:18:48.502Z,219.19
2023-04-30T02:19:48.539Z,217.19
2023-04-30T02:20:48.602Z,219.02
2023-04-30T02:21:48.636Z,216.35
2023-04-30T02:22:48.720Z,219.63
2023-04-30T02:23:48.717Z,220.40
2023-04-30T02:24:48.767Z,218.82
2023-04-30T02:25:48.787Z,214.97
2023-04-30T02:26:48.837Z,212.84
2023-04-30T02:27:48.859Z,208.18
2023-04-30T02:28:48.932Z,211.00
2023-04-30T02:29:48.987Z,216.98
2023-04-30T02:30:49.037Z,218.40
2023-04-30T02:31:49.100Z,218.26
2023-04-30T02:32:49.170Z,218.99
2023-04-30T02:33:49.160Z,217.99
2023-04-30T02:34:49.219Z,224.99
2023-04-30T02:35:49.296Z,221.20
2023-04-30T02:36:49.319Z,220.66
2023-04-30T02:37:49.376Z,222.03
2023-04-30T02:38:49.409Z,218.48
2023-04-30T02:39:49.436Z,216.88
2023-04-30T02:40:49.552Z,218.89
2023-04-30T02:41:49.564Z,218.88
2023-04-30T02:42:49.650Z,222.02
2023-04-30T02:43:49.678Z,212.74
2023-04-30T02:44:49.712Z,212.57
2023-04-30T02:45:49.840Z,217.72
2023-04-30T02:46:49.839Z,215.03
2023-04-30T02:47:49.973Z,215.03
2023-04-30T02:48:49.931Z,220.02
2023-04-30T02:49:49.977Z,219.88
2023-04-30T02:50:50.074Z,216.66
2023-04-30T02:51:50.132Z,220.39
2023-04-30T02:52:50.148Z,221.42
2023-04-30T02:53:50.216Z,219.84
2023-04-30T02:54:50.272Z,220.32
2023-04-30T02:55:50.336Z,218.46
2023-04-30T02:56:50.388Z,217.99
2023-04-30T02:57:50.409Z,216.16
2023-04-30T02:58:50.471Z,218.98
2023-04-30T02:59:50.528Z,220.92
2023-04-30T03:00:50.632Z,219.02
2023-04-30T03:01:50.659Z,221.43
2023-04-30T03:02:50.770Z,220.90
2023-04-30T03:03:50.729Z,218.91
2023-04-30T03:04:50.766Z,217.08
2023-04-30T03:05:50.776Z,216.71
2023-04-30T03:06:50.849Z,216.70
2023-04-30T03:07:50.888Z,220.34
2023-04-30T03:08:50.957Z,222.37
2023-04-30T03:09:51.013Z,220.15
2023-04-30T03:10:51.045Z,221.61
2023-04-30T03:11:51.111Z,221.26
2023-04-30T03:12:51.151Z,221.83
2023-04-30T03:13:51.224Z,219.78
2023-04-30T03:14:51.291Z,218.60
2023-04-30T03:15:51.312Z,222.90
2023-04-30T03:16:51.377Z,219.68
2023-04-30T03:17:51.420Z,219.94
2023-04-30T03:18:51.466Z,211.83
2023-04-30T03:19:51.509Z,211.65
2023-04-30T03:20:51.564Z,215.71
2023-04-30T03:21:51.605Z,214.44
2023-04-30T03:22:51.675Z,216.23
2023-04-30T03:23:51.727Z,215.93
2023-04-30T03:24:51.762Z,216.51
2023-04-30T03:25:51.852Z,217.27
2023-04-30T03:26:51.910Z,219.07
2023-04-30T03:27:51.962Z,219.80
2023-04-30T03:28:52.019Z,219.69
2023-04-30T03:29:52.207Z,217.88
2023-04-30T03:30:52.115Z,217.85
2023-04-30T03:31:52.208Z,220.98
2023-04-30T03:32:52.199Z,220.08
2023-04-30T03:33:52.315Z,221.58
2023-04-30T03:34:52.348Z,218.16
2023-04-30T03:35:52.405Z,224.55
2023-04-30T03:36:52.422Z,224.36
2023-04-30T03:37:52.507Z,227.45
2023-04-30T03:38:52.535Z,223.81
2023-04-30T03:39:52.829Z,220.44
2023-04-30T03:40:52.688Z,218.65
2023-04-30T03:41:52.709Z,215.52
2023-04-30T03:42:52.808Z,213.15
2023-04-30T03:43:52.876Z,213.19
2023-04-30T03:44:52.891Z,213.88
2023-04-30T03:45:53.000Z,211.27
2023-04-30T03:46:53.029Z,211.33
2023-04-30T03:47:53.100Z,211.43
2023-04-30T03:48:53.117Z,210.62
2023-04-30T03:49:53.715Z,216.12
2023-04-30T03:50:53.199Z,218.07
2023-04-30T03:51:53.242Z,216.44
2023-04-30T03:52:53.312Z,217.98
2023-04-30T03:53:53.351Z,213.06
2023-04-30T03:54:53.365Z,216.26
2023-04-30T03:55:53.461Z,212.67
2023-04-30T03:56:53.486Z,210.24
2023-04-30T03:57:53.533Z,211.91
2023-04-30T03:58:53.588Z,211.67
2023-04-30T03:59:53.775Z,209.67
2023-04-30T04:00:53.694Z,215.02
2023-04-30T04:01:53.746Z,212.71
2023-04-30T04:02:53.850Z,210.59
2023-04-30T04:03:53.849Z,208.60
2023-04-30T04:04:53.883Z,209.97
2023-04-30T04:05:53.950Z,212.55
2023-04-30T04:06:53.997Z,210.58
2023-04-30T04:07:54.004Z,212.03
2023-04-30T04:08:54.063Z,213.07
2023-04-30T04:09:54.228Z,208.58
2023-04-30T04:10:54.161Z,207.90
2023-04-30T04:11:54.171Z,207.14
2023-04-30T04:12:54.259Z,209.59
2023-04-30T04:13:54.293Z,211.28
2023-04-30T04:14:54.407Z,212.94
2023-04-30T04:15:54.444Z,210.11
2023-04-30T04:16:54.460Z,213.76
2023-04-30T04:17:54.587Z,211.66
2023-04-30T04:18:54.590Z,214.89
2023-04-30T04:19:54.789Z,213.30
2023-04-30T04:20:54.679Z,206.86
2023-04-30T04:21:54.749Z,202.84
2023-04-30T04:22:54.803Z,207.02
2023-04-30T04:23:54.822Z,207.19
2023-04-30T04:24:54.881Z,205.84
2023-04-30T04:25:54.967Z,206.14
2023-04-30T04:26:55.034Z,208.36
2023-04-30T04:27:55.061Z,207.95
2023-04-30T04:28:55.112Z,209.08
2023-04-30T04:29:55.416Z,205.45
2023-04-30T04:30:55.210Z,200.50
2023-04-30T04:31:55.289Z,198.87
2023-04-30T04:32:55.342Z,201.34
2023-04-30T04:33:55.392Z,206.85
2023-04-30T04:34:55.446Z,207.47
2023-04-30T04:35:55.491Z,206.30
2023-04-30T04:36:55.579Z,206.10
2023-04-30T04:37:55.599Z,204.89
2023-04-30T04:38:55.645Z,202.65
2023-04-30T04:39:55.997Z,201.77
2023-04-30T04:40:55.763Z,203.45
2023-04-30T04:41:55.803Z,196.66
2023-04-30T04:42:55.879Z,192.60
2023-04-30T04:43:55.910Z,193.56
2023-04-30T04:44:55.999Z,195.59
2023-04-30T04:45:56.055Z,196.70
2023-04-30T04:46:56.143Z,196.32
2023-04-30T04:47:56.184Z,199.61
2023-04-30T04:48:56.207Z,200.70
2023-04-30T04:49:56.464Z,198.02
2023-04-30T04:50:56.298Z,196.37
2023-04-30T04:51:56.362Z,197.97
2023-04-30T04:52:56.500Z,198.52
2023-04-30T04:53:56.438Z,196.00
2023-04-30T04:54:56.534Z,189.63
2023-04-30T04:55:56.555Z,189.30
2023-04-30T04:56:56.606Z,189.69
2023-04-30T04:57:56.650Z,191.70
2023-04-30T04:58:56.720Z,195.95
2023-04-30T04:59:56.989Z,192.87
2023-04-30T05:00:56.850Z,196.76
2023-04-30T05:01:56.957Z,193.97
2023-04-30T05:02:57.040Z,193.73
2023-04-30T05:03:56.997Z,192.98
2023-04-30T05:04:57.049Z,198.41
2023-04-30T05:05:57.154Z,193.46
2023-04-30T05:06:57.125Z,193.91
2023-04-30T05:07:57.215Z,194.72
2023-04-30T05:08:57.356Z,192.62
2023-04-30T05:09:57.497Z,198.61
2023-04-30T05:10:57.320Z,194.90
2023-04-30T05:11:57.448Z,193.09
2023-04-30T05:12:57.436Z,186.48
2023-04-30T05:13:57.472Z,189.68
2023-04-30T05:14:57.520Z,189.84
2023-04-30T05:15:57.624Z,192.53
2023-04-30T05:16:57.618Z,197.52
2023-04-30T05:17:57.731Z,198.78
2023-04-30T05:18:57.728Z,196.65
2023-04-30T05:19:57.972Z,194.84
2023-04-30T05:20:57.868Z,194.84
2023-04-30T05:21:57.888Z,196.87
2023-04-30T05:22:57.957Z,193.97
2023-04-30T05:23:58.013Z,186.67
2023-04-30T05:24:58.059Z,188.62
2023-04-30T05:25:58.102Z,188.23
2023-04-30T05:26:58.172Z,187.44
2023-04-30T05:27:58.237Z,185.48
2023-04-30T05:28:58.265Z,185.75
2023-04-30T05:29:58.302Z,193.93
2023-04-30T05:30:58.376Z,193.34
2023-04-30T05:31:58.556Z,196.33
2023-04-30T05:32:58.508Z,191.74
2023-04-30T05:33:58.559Z,194.38
2023-04-30T05:34:58.582Z,190.88
2023-04-30T05:35:58.613Z,187.46
2023-04-30T05:36:58.652Z,186.61
2023-04-30T05:37:58.744Z,183.78
2023-04-30T05:38:58.797Z,185.74
2023-04-30T05:39:58.853Z,192.05
2023-04-30T05:40:58.887Z,182.78
2023-04-30T05:41:59.071Z,180.83
2023-04-30T05:42:59.028Z,183.42
2023-04-30T05:43:59.089Z,183.00
2023-04-30T05:44:59.094Z,183.59
2023-04-30T05:45:59.267Z,185.85
2023-04-30T05:46:59.213Z,187.36
2023-04-30T05:47:59.307Z,181.10
2023-04-30T05:48:59.324Z,181.46
2023-04-30T05:49:59.381Z,184.12
2023-04-30T05:50:59.441Z,177.78
2023-04-30T05:51:59.491Z,176.49
2023-04-30T05:52:59.559Z,172.62
2023-04-30T05:53:59.606Z,165.89
2023-04-30T05:54:59.642Z,167.15
2023-04-30T05:55:59.699Z,172.65
2023-04-30T05:56:59.735Z,175.68
2023-04-30T05:57:59.795Z,180.52
2023-04-30T05:58:59.881Z,173.70
2023-04-30T05:59:59.936Z,172.11
2023-04-30T06:00:59.969Z,169.81
2023-04-30T06:02:00.100Z,174.14
2023-04-30T06:03:00.141Z,177.72
2023-04-30T06:04:00.171Z,179.10
2023-04-30T06:05:00.304Z,175.29
2023-04-30T06:06:00.390Z,174.33
2023-04-30T06:07:00.322Z,182.37
2023-04-30T06:08:00.425Z,177.36
2023-04-30T06:09:00.453Z,172.48
2023-04-30T06:10:00.573Z,171.30
2023-04-30T06:11:00.597Z,175.17
2023-04-30T06:12:00.574Z,178.38
2023-04-30T06:13:00.680Z,174.91
2023-04-30T06:14:00.718Z,173.70
2023-04-30T06:15:00.752Z,179.74
2023-04-30T06:16:00.833Z,183.26
2023-04-30T06:17:01.014Z,183.41
2023-04-30T06:18:00.949Z,187.55
2023-04-30T06:19:00.968Z,185.69
2023-04-30T06:20:01.014Z,188.24
2023-04-30T06:21:01.056Z,186.45
2023-04-30T06:22:01.120Z,192.34
2023-04-30T06:23:01.163Z,193.10
2023-04-30T06:24:01.223Z,189.65
2023-04-30T06:25:01.285Z,184.89
2023-04-30T06:26:01.305Z,180.23
2023-04-30T06:27:01.390Z,189.75
2023-04-30T06:28:01.447Z,188.31
2023-04-30T06:29:01.474Z,183.00
2023-04-30T06:30:01.574Z,184.52
2023-04-30T06:31:01.636Z,187.75
2023-04-30T06:32:01.633Z,186.14
2023-04-30T06:33:01.782Z,188.85
2023-04-30T06:34:01.748Z,191.92
2023-04-30T06:35:01.831Z,189.05
2023-04-30T06:36:01.865Z,186.18
2023-04-30T06:37:01.931Z,187.67
2023-04-30T06:38:01.994Z,188.10
2023-04-30T06:39:02.014Z,187.86
2023-04-30T06:40:02.091Z,190.11
2023-04-30T06:41:02.124Z,183.66
2023-04-30T06:42:02.180Z,180.60
2023-04-30T06:43:02.214Z,177.61
2023-04-30T06:44:02.291Z,173.03
2023-04-30T06:45:02.444Z,178.47
2023-04-30T06:46:02.419Z,181.44
2023-04-30T06:47:02.440Z,181.38
2023-04-30T06:48:02.530Z,183.12
2023-04-30T06:49:02.586Z,181.38
2023-04-30T06:50:02.639Z,182.45
2023-04-30T06:51:02.660Z,175.47
2023-04-30T06:52:02.756Z,174.28
2023-04-30T06:53:02.800Z,176.22
2023-04-30T06:54:02.834Z,171.32
2023-04-30T06:55:02.905Z,171.03
2023-04-30T06:56:02.953Z,167.74
2023-04-30T06:57:03.005Z,170.96
2023-04-30T06:58:03.077Z,172.42
2023-04-30T06:59:03.104Z,165.25
2023-04-30T07:00:03.167Z,167.45
2023-04-30T07:01:03.377Z,171.86
2023-04-30T07:02:03.328Z,174.41
2023-04-30T07:03:03.496Z,179.80
2023-04-30T07:04:03.388Z,180.37
2023-04-30T07:05:03.523Z,176.66
2023-04-30T07:06:03.522Z,164.48
2023-04-30T07:07:03.546Z,164.47
2023-04-30T07:08:03.580Z,173.97
2023-04-30T07:09:03.664Z,179.74
2023-04-30T07:10:03.690Z,185.65
2023-04-30T07:11:03.761Z,190.02
2023-04-30T07:12:03.800Z,198.32
2023-04-30T07:13:03.888Z,183.92
2023-04-30T07:14:03.969Z,177.69
2023-04-30T07:15:03.991Z,182.15
2023-04-30T07:16:04.041Z,182.37
2023-04-30T07:17:04.074Z,181.17
2023-04-30T07:18:04.234Z,178.00
2023-04-30T07:19:04.190Z,173.61
2023-04-30T07:20:04.241Z,172.83
2023-04-30T07:21:04.276Z,172.18
2023-04-30T07:22:04.360Z,164.14
2023-04-30T07:23:04.386Z,165.69
2023-04-30T07:24:04.444Z,169.86
2023-04-30T07:25:04.525Z,168.84
2023-04-30T07:26:04.543Z,165.65
2023-04-30T07:27:04.579Z,166.73
2023-04-30T07:28:04.636Z,177.77
2023-04-30T07:29:04.722Z,181.48
2023-04-30T07:30:04.772Z,186.80
2023-04-30T07:31:04.862Z,184.96
2023-04-30T07:32:04.894Z,188.35
2023-04-30T07:33:04.977Z,186.28
2023-04-30T07:34:04.986Z,178.68
2023-04-30T07:35:05.083Z,181.38
2023-04-30T07:36:05.067Z,180.30
2023-04-30T07:37:05.177Z,185.26
2023-04-30T07:38:05.181Z,178.99
2023-04-30T07:39:05.292Z,177.51
2023-04-30T07:40:05.294Z,176.29
2023-04-30T07:41:05.382Z,174.37
2023-04-30T07:42:05.435Z,179.10
2023-04-30T07:43:05.499Z,181.13
2023-04-30T07:44:05.529Z,175.76
2023-04-30T07:45:05.566Z,180.61
2023-04-30T07:46:05.648Z,182.33
2023-04-30T07:47:05.703Z,188.31
2023-04-30T07:48:05.780Z,181.39
2023-04-30T07:49:05.771Z,181.02
2023-04-30T07:50:05.853Z,183.29
2023-04-30T07:51:05.903Z,176.67
2023-04-30T07:52:05.930Z,172.14
2023-04-30T07:53:05.960Z,171.38
2023-04-30T07:54:06.026Z,170.19
2023-04-30T07:55:06.077Z,177.67
2023-04-30T07:56:06.110Z,179.75
2023-04-30T07:57:06.180Z,177.87
2023-04-30T07:58:06.208Z,170.47
2023-04-30T07:59:06.289Z,173.38
2023-04-30T08:00:06.299Z,174.53
2023-04-30T08:01:06.349Z,178.39
2023-04-30T08:02:06.487Z,169.97
2023-04-30T08:03:06.577Z,171.09
2023-04-30T08:04:06.677Z,164.49
2023-04-30T08:05:06.576Z,154.36
2023-04-30T08:06:06.633Z,158.56
2023-04-30T08:07:06.671Z,161.37
2023-04-30T08:08:06.700Z,163.98
2023-04-30T08:09:06.763Z,162.47
2023-04-30T08:10:06.799Z,158.81
2023-04-30T08:11:06.873Z,158.89
2023-04-30T08:12:06.906Z,161.37
2023-04-30T08:13:06.955Z,167.40
2023-04-30T08:14:07.026Z,168.88
2023-04-30T08:15:07.048Z,170.06
2023-04-30T08:16:07.118Z,180.13
2023-04-30T08:17:07.157Z,182.73
2023-04-30T08:18:07.219Z,186.88
2023-04-30T08:19:07.281Z,186.12
2023-04-30T08:20:07.267Z,186.19
2023-04-30T08:21:07.323Z,176.95
2023-04-30T08:22:07.379Z,167.71
2023-04-30T08:23:07.433Z,170.05
2023-04-30T08:24:07.456Z,157.45
2023-04-30T08:25:07.526Z,156.36
2023-04-30T08:26:07.538Z,159.37
2023-04-30T08:27:07.589Z,163.03
2023-04-30T08:28:07.648Z,160.05
2023-04-30T08:29:07.704Z,150.79
2023-04-30T08:30:07.738Z,142.11
2023-04-30T08:31:07.749Z,150.59
2023-04-30T08:32:07.872Z,147.03
2023-04-30T08:33:07.924Z,154.33
2023-04-30T08:34:07.955Z,165.09
2023-04-30T08:35:07.967Z,174.62
2023-04-30T08:36:08.006Z,174.05
2023-04-30T08:37:08.057Z,170.05
2023-04-30T08:38:08.077Z,155.73
2023-04-30T08:39:08.114Z,146.30
2023-04-30T08:40:08.163Z,151.68
2023-04-30T08:41:08.218Z,157.65
2023-04-30T08:42:08.241Z,147.46
2023-04-30T08:43:08.364Z,151.84
2023-04-30T08:44:08.703Z,144.22
2023-04-30T08:45:08.390Z,147.52
2023-04-30T08:46:08.467Z,145.06
2023-04-30T08:47:08.506Z,145.19
2023-04-30T08:48:08.629Z,139.96
2023-04-30T08:49:08.608Z,147.42
2023-04-30T08:50:08.642Z,133.64
2023-04-30T08:51:08.714Z,134.08
2023-04-30T08:52:09.004Z,144.78
2023-04-30T08:53:08.792Z,146.01
2023-04-30T08:54:08.886Z,140.73
2023-04-30T08:55:08.913Z,148.46
2023-04-30T08:56:08.973Z,162.15
2023-04-30T08:57:08.990Z,167.48
2023-04-30T08:58:09.023Z,170.45
2023-04-30T08:59:09.084Z,165.69
2023-04-30T09:00:09.136Z,171.12
2023-04-30T09:01:09.251Z,163.89
2023-04-30T09:02:09.264Z,162.01
2023-04-30T09:03:09.400Z,154.89
2023-04-30T09:04:09.425Z,151.40
2023-04-30T09:05:09.408Z,158.95
2023-04-30T09:06:09.504Z,146.69
2023-04-30T09:07:09.785Z,138.17
2023-04-30T09:08:09.499Z,151.28
2023-04-30T09:09:09.589Z,161.30
2023-04-30T09:10:09.656Z,177.20
2023-04-30T09:11:09.671Z,173.54
2023-04-30T09:12:09.713Z,164.58
2023-04-30T09:13:09.731Z,155.32
2023-04-30T09:14:09.826Z,147.84
2023-04-30T09:15:09.835Z,160.64
2023-04-30T09:16:09.965Z,167.53
2023-04-30T09:17:09.912Z,167.48
2023-04-30T09:18:10.077Z,167.02
2023-04-30T09:19:09.975Z,160.29
2023-04-30T09:20:10.083Z,169.21
2023-04-30T09:21:10.037Z,164.61
2023-04-30T09:22:10.092Z,172.75
2023-04-30T09:23:10.153Z,174.66
2023-04-30T09:24:10.517Z,189.56
2023-04-30T09:25:10.221Z,189.64
2023-04-30T09:26:10.319Z,179.66
2023-04-30T09:27:10.292Z,188.70
2023-04-30T09:28:10.348Z,178.61
2023-04-30T09:29:10.405Z,180.89
2023-04-30T09:30:10.476Z,166.09
2023-04-30T09:31:10.518Z,158.72
2023-04-30T09:32:10.536Z,151.04
2023-04-30T09:33:12.271Z,156.98
2023-04-30T09:34:10.645Z,157.20
2023-04-30T09:35:10.667Z,169.70
2023-04-30T09:36:10.682Z,179.68
2023-04-30T09:37:10.730Z,170.75
2023-04-30T09:38:10.797Z,185.38
2023-04-30T09:39:12.639Z,167.25
2023-04-30T09:40:10.821Z,179.81
2023-04-30T09:41:10.846Z,187.06
2023-04-30T09:42:10.860Z,190.04
2023-04-30T09:43:10.872Z,187.02
2023-04-30T09:44:10.888Z,179.13
2023-04-30T09:45:10.892Z,172.22
2023-04-30T09:46:10.948Z,167.28
2023-04-30T09:47:11.024Z,173.01
2023-04-30T09:48:17.211Z,180.13
2023-04-30T09:49:11.948Z,180.50
2023-04-30T09:50:10.946Z,180.43
2023-04-30T09:51:10.948Z,172.56
2023-04-30T09:52:10.958Z,165.68
2023-04-30T09:53:10.999Z,156.57
2023-04-30T09:54:10.991Z,167.62
2023-04-30T09:55:11.013Z,161.87
2023-04-30T09:56:11.044Z,139.37
2023-04-30T09:57:11.046Z,111.49
2023-04-30T09:58:11.028Z,118.78
2023-04-30T09:59:11.070Z,133.23
2023-04-30T10:00:11.274Z,130.68
2023-04-30T10:01:11.093Z,132.89
2023-04-30T10:02:11.076Z,135.81
2023-04-30T10:03:11.192Z,133.18
2023-04-30T10:04:11.199Z,130.33
2023-04-30T10:05:11.112Z,135.97
2023-04-30T10:06:11.160Z,131.84
2023-04-30T10:07:11.614Z,130.12
2023-04-30T10:08:11.140Z,129.42
2023-04-30T10:09:11.131Z,124.49
2023-04-30T10:10:11.139Z,125.57
2023-04-30T10:11:11.196Z,122.48
2023-04-30T10:12:11.249Z,120.31
2023-04-30T10:13:11.271Z,109.07
2023-04-30T10:14:11.277Z,101.26
2023-04-30T10:15:11.322Z,103.78
2023-04-30T10:16:11.417Z,104.72
2023-04-30T10:17:11.361Z,110.44
2023-04-30T10:18:11.563Z,114.26
2023-04-30T10:19:11.482Z,113.77
2023-04-30T10:20:11.491Z,112.86
2023-04-30T10:21:11.495Z,106.94
2023-04-30T10:22:11.512Z,104.70
2023-04-30T10:23:11.549Z,101.78
2023-04-30T10:24:11.592Z,97.51
2023-04-30T10:25:11.614Z,96.67
2023-04-30T10:26:11.644Z,105.42
2023-04-30T10:27:11.702Z,110.31
2023-04-30T10:28:11.683Z,104.52
2023-04-30T10:29:11.748Z,108.44
2023-04-30T10:30:11.730Z,114.19
2023-04-30T10:31:11.767Z,124.91
2023-04-30T10:32:11.867Z,126.53
2023-04-30T10:33:13.554Z,129.97
2023-04-30T10:34:11.852Z,122.88
2023-04-30T10:35:11.855Z,112.99
2023-04-30T10:36:11.836Z,123.84
2023-04-30T10:37:11.863Z,120.35
2023-04-30T10:38:11.841Z,131.13
2023-04-30T10:39:11.862Z,137.73
2023-04-30T10:40:11.951Z,141.31
2023-04-30T10:41:11.859Z,144.03
2023-04-30T10:42:11.877Z,131.66
2023-04-30T10:43:11.868Z,121.82
2023-04-30T10:44:11.895Z,110.32
2023-04-30T10:45:11.888Z,109.67
2023-04-30T10:46:11.920Z,107.76
2023-04-30T10:47:11.890Z,124.92
2023-04-30T10:48:11.932Z,135.55
2023-04-30T10:49:11.915Z,139.37
2023-04-30T10:50:11.929Z,141.72
2023-04-30T10:51:11.939Z,149.46
2023-04-30T10:52:11.921Z,153.16
2023-04-30T10:53:11.936Z,157.95
2023-04-30T10:54:11.949Z,164.05
2023-04-30T10:55:11.922Z,163.80
2023-04-30T10:56:11.946Z,164.62
2023-04-30T10:57:11.966Z,171.43
2023-04-30T10:58:11.952Z,168.67
2023-04-30T10:59:11.926Z,174.42
2023-04-30T11:00:11.928Z,167.34
2023-04-30T11:01:11.961Z,173.55
2023-04-30T11:02:11.958Z,163.63
2023-04-30T11:03:11.958Z,166.15
2023-04-30T11:04:11.969Z,171.84
2023-04-30T11:05:12.173Z,168.40
2023-04-30T11:06:11.971Z,167.08
2023-04-30T11:07:11.945Z,170.45
2023-04-30T11:08:11.969Z,168.82
2023-04-30T11:09:11.966Z,167.11
2023-04-30T11:10:11.984Z,166.29
2023-04-30T11:11:11.968Z,161.82
2023-04-30T11:12:11.969Z,152.79
2023-04-30T11:13:11.948Z,148.83
2023-04-30T11:14:11.953Z,148.78
2023-04-30T11:15:11.950Z,149.12
2023-04-30T11:16:12.007Z,149.40
2023-04-30T11:17:12.060Z,146.61
2023-04-30T11:18:12.259Z,150.72
2023-04-30T11:19:12.004Z,156.76
2023-04-30T11:20:12.069Z,160.87
2023-04-30T11:21:11.954Z,154.91
2023-04-30T11:22:11.969Z,158.75
2023-04-30T11:23:12.539Z,158.52
2023-04-30T11:24:11.988Z,159.01
2023-04-30T11:25:12.004Z,157.05
2023-04-30T11:26:11.993Z,155.70
2023-04-30T11:27:12.026Z,153.82
2023-04-30T11:28:12.015Z,159.66
2023-04-30T11:29:12.055Z,160.49
2023-04-30T11:30:12.069Z,160.01
2023-04-30T11:32:12.165Z,149.50
2023-04-30T11:33:12.209Z,154.70
2023-04-30T11:34:12.252Z,156.57
2023-04-30T11:35:12.330Z,163.69
2023-04-30T11:36:12.359Z,161.22
2023-04-30T11:37:12.399Z,161.27
2023-04-30T11:38:12.459Z,162.31
2023-04-30T11:39:12.482Z,151.41
2023-04-30T11:40:12.567Z,154.03
2023-04-30T11:41:12.602Z,152.03
2023-04-30T11:42:12.662Z,149.44
2023-04-30T11:43:12.740Z,131.94
2023-04-30T11:44:13.109Z,126.85
2023-04-30T11:45:13.159Z,117.87
2023-04-30T11:46:12.910Z,121.08
2023-04-30T11:47:12.835Z,130.06
2023-04-30T11:48:13.048Z,131.91
2023-04-30T11:49:13.068Z,133.70
2023-04-30T11:50:13.019Z,135.81
2023-04-30T11:51:13.013Z,133.09
2023-04-30T11:52:13.057Z,119.36
2023-04-30T11:53:13.125Z,123.49
2023-04-30T11:54:13.151Z,127.96
2023-04-30T11:55:13.196Z,125.17
2023-04-30T11:56:13.255Z,129.11
2023-04-30T11:57:13.296Z,125.51
2023-04-30T11:58:13.346Z,123.48
2023-04-30T11:59:13.398Z,109.41
2023-04-30T12:00:13.435Z,117.11
2023-04-30T12:01:13.489Z,119.12
2023-04-30T12:02:13.857Z,112.77
2023-04-30T12:03:13.680Z,103.14
2023-04-30T12:04:13.709Z,99.61
2023-04-30T12:05:13.647Z,101.82
2023-04-30T12:06:13.790Z,96.68
2023-04-30T12:07:13.716Z,95.99
2023-04-30T12:08:13.744Z,93.66
2023-04-30T12:09:13.833Z,91.74
2023-04-30T12:10:13.841Z,98.39
2023-04-30T12:11:13.879Z,103.02
2023-04-30T12:12:13.942Z,106.11
2023-04-30T12:13:13.993Z,107.25
2023-04-30T12:14:14.058Z,104.30
2023-04-30T12:15:14.057Z,104.21
2023-04-30T12:16:14.142Z,106.21
2023-04-30T12:17:14.169Z,114.77
2023-04-30T12:18:14.246Z,102.38
2023-04-30T12:19:14.264Z,96.12
2023-04-30T12:20:14.318Z,101.25
2023-04-30T12:21:14.357Z,109.11
2023-04-30T12:22:14.373Z,102.40
2023-04-30T12:23:14.427Z,105.90
2023-04-30T12:24:14.520Z,100.30
2023-04-30T12:25:14.566Z,99.76
2023-04-30T12:26:14.597Z,100.84
2023-04-30T12:27:14.633Z,99.63
2023-04-30T12:28:14.673Z,111.05
2023-04-30T12:29:15.688Z,106.19
2023-04-30T12:30:14.774Z,104.60